createdAt,value
2018-02-12T00:00:11.028Z,86.60
2018-02-12T00:02:38.499Z,86.90
2018-02-12T00:05:05.955Z,87.10
2018-02-12T00:07:33.411Z,86.30
2018-02-12T00:10:00.858Z,85.70
2018-02-12T00:12:28.307Z,85.40
2018-02-12T00:14:55.753Z,85.60
2018-02-12T00:17:23.217Z,86.30
2018-02-12T00:19:50.675Z,87.60
2018-02-12T00:22:18.131Z,89.20
2018-02-12T00:24:45.586Z,90.20
2018-02-12T00:27:13.043Z,90.60
2018-02-12T00:29:40.486Z,90.80
2018-02-12T00:32:07.943Z,91.10
2018-02-12T00:34:35.390Z,91.10
2018-02-12T00:37:02.846Z,91.10
2018-02-12T00:39:30.297Z,91.40
2018-02-12T00:41:57.754Z,91.60
2018-02-12T00:44:25.189Z,92.00
2018-02-12T00:46:52.647Z,92.20
2018-02-12T00:49:20.091Z,92.30
2018-02-12T00:51:48.310Z,92.40
2018-02-12T00:54:15.754Z,92.40
2018-02-12T00:56:43.210Z,92.40
2018-02-12T00:59:10.684Z,92.60
2018-02-12T01:01:38.130Z,92.60
2018-02-12T01:04:05.581Z,92.70
2018-02-12T01:06:33.034Z,92.90
2018-02-12T01:09:00.490Z,93.00
2018-02-12T01:11:27.946Z,93.10
2018-02-12T01:13:55.403Z,93.20
2018-02-12T01:16:22.862Z,93.30
2018-02-12T01:18:50.314Z,93.30
2018-02-12T01:21:17.770Z,93.30
2018-02-12T01:23:45.227Z,93.20
2018-02-12T01:26:12.682Z,93.20
2018-02-12T01:28:40.144Z,93.20
2018-02-12T01:31:07.594Z,93.00
2018-02-12T01:33:35.051Z,93.00
2018-02-12T01:36:02.494Z,93.00
2018-02-12T01:38:29.938Z,93.00
2018-02-12T01:40:57.388Z,92.90
2018-02-12T01:43:25.610Z,92.80
2018-02-12T01:45:53.051Z,92.80
2018-02-12T01:48:20.506Z,92.70
2018-02-12T01:50:47.972Z,92.90
2018-02-12T01:53:15.647Z,93.00
2018-02-12T01:55:43.118Z,92.80
2018-02-12T01:58:10.593Z,92.70
2018-02-12T02:00:38.828Z,93.10
2018-02-12T02:03:06.279Z,92.80
2018-02-12T02:05:33.750Z,93.00
2018-02-12T02:08:01.202Z,92.80
2018-02-12T02:10:28.646Z,92.80
2018-02-12T02:12:56.110Z,92.90
2018-02-12T02:15:23.602Z,93.00
2018-02-12T02:17:51.849Z,93.20
2018-02-12T02:20:19.319Z,93.20
2018-02-12T02:22:46.787Z,93.30
2018-02-12T02:25:14.248Z,93.40
2018-02-12T02:27:41.702Z,93.30
2018-02-12T02:30:09.946Z,93.20
2018-02-12T02:32:37.422Z,93.20
2018-02-12T02:35:04.890Z,93.30
2018-02-12T02:37:32.365Z,93.40
2018-02-12T02:40:00.595Z,93.20
2018-02-12T02:42:28.035Z,93.20
2018-02-12T02:44:55.509Z,93.00
2018-02-12T02:47:22.970Z,92.90
2018-02-12T02:49:50.414Z,92.80
2018-02-12T02:52:17.882Z,92.80
2018-02-12T02:54:45.343Z,92.80
2018-02-12T02:57:12.800Z,92.90
2018-02-12T02:59:40.248Z,92.90
2018-02-12T03:02:07.698Z,92.90
2018-02-12T03:04:35.153Z,92.80
2018-02-12T03:07:02.593Z,92.60
2018-02-12T03:09:30.059Z,92.10
2018-02-12T03:11:57.501Z,92.00
2018-02-12T03:14:24.953Z,91.00
2018-02-12T03:16:52.394Z,90.90
2018-02-12T03:19:19.858Z,91.10
2018-02-12T03:21:47.294Z,91.00
2018-02-12T03:24:14.762Z,91.00
2018-02-12T03:26:42.213Z,90.90
2018-02-12T03:29:09.653Z,90.60
2018-02-12T03:31:37.965Z,90.40
2018-02-12T03:34:05.425Z,90.30
2018-02-12T03:36:33.801Z,90.40
2018-02-12T03:39:01.255Z,90.80
2018-02-12T03:41:28.710Z,90.70
2018-02-12T03:43:56.176Z,90.80
2018-02-12T03:46:23.635Z,90.00
2018-02-12T03:48:51.082Z,89.50
2018-02-12T03:51:18.535Z,90.30
2018-02-12T03:53:45.991Z,88.40
2018-02-12T03:56:13.449Z,89.50
2018-02-12T03:58:40.903Z,90.00
2018-02-12T04:01:09.126Z,89.20
2018-02-12T04:03:36.584Z,89.20
2018-02-12T04:06:04.056Z,89.00
2018-02-12T04:08:32.270Z,88.70
2018-02-12T04:10:59.722Z,89.10
2018-02-12T04:13:27.172Z,88.60
2018-02-12T04:15:54.615Z,88.40
2018-02-12T04:18:22.054Z,88.50
2018-02-12T04:20:50.275Z,87.50
2018-02-12T04:23:17.718Z,87.50
2018-02-12T04:25:45.174Z,87.30
2018-02-12T04:28:12.618Z,87.70
2018-02-12T04:30:40.081Z,88.00
2018-02-12T04:33:07.519Z,88.20
2018-02-12T04:35:34.983Z,87.80
2018-02-12T04:38:02.433Z,88.50
2018-02-12T04:40:29.891Z,88.30
2018-02-12T04:42:57.395Z,88.90
2018-02-12T04:45:24.887Z,89.10
2018-02-12T04:47:52.351Z,89.10
2018-02-12T04:50:19.815Z,88.50
2018-02-12T04:52:47.351Z,88.40
2018-02-12T04:55:14.810Z,88.60
2018-02-12T04:57:43.043Z,88.10
2018-02-12T05:00:10.628Z,88.10
2018-02-12T05:02:38.103Z,88.10
2018-02-12T05:05:06.329Z,88.70
2018-02-12T05:07:33.786Z,88.70
2018-02-12T05:10:01.259Z,89.40
2018-02-12T05:12:28.704Z,89.50
2018-02-12T05:14:56.147Z,89.90
2018-02-12T05:17:23.602Z,88.10
2018-02-12T05:19:51.815Z,88.70
2018-02-12T05:22:19.267Z,88.60
2018-02-12T05:24:46.710Z,88.80
2018-02-12T05:27:14.167Z,86.50
2018-02-12T05:29:41.628Z,86.10
2018-02-12T05:32:09.078Z,85.20
2018-02-12T05:34:36.535Z,84.00
2018-02-12T05:37:03.991Z,85.50
2018-02-12T05:39:31.443Z,85.60
2018-02-12T05:41:58.895Z,83.30
2018-02-12T05:44:26.340Z,82.70
2018-02-12T05:46:53.830Z,82.20
2018-02-12T05:49:21.278Z,81.20
2018-02-12T05:51:48.728Z,81.70
2018-02-12T05:54:16.169Z,82.70
2018-02-12T05:56:43.616Z,82.40
2018-02-12T05:59:11.075Z,82.10
2018-02-12T06:01:38.518Z,81.40
2018-02-12T06:04:05.984Z,80.40
2018-02-12T06:06:33.418Z,80.50
2018-02-12T06:09:00.863Z,81.30
2018-02-12T06:11:29.072Z,81.50
2018-02-12T06:13:56.527Z,81.50
2018-02-12T06:16:23.954Z,80.30
2018-02-12T06:18:52.186Z,79.20
2018-02-12T06:21:19.634Z,79.20
2018-02-12T06:23:47.100Z,77.80
2018-02-12T06:26:14.551Z,78.50
2018-02-12T06:28:41.998Z,78.20
2018-02-12T06:31:09.441Z,78.30
2018-02-12T06:33:36.901Z,78.40
2018-02-12T06:36:04.338Z,78.40
2018-02-12T06:38:31.787Z,78.30
2018-02-12T06:40:59.227Z,78.40
2018-02-12T06:43:27.443Z,78.70
2018-02-12T06:45:54.895Z,78.60
2018-02-12T06:48:22.351Z,77.00
2018-02-12T06:50:49.807Z,78.60
2018-02-12T06:53:17.267Z,77.60
2018-02-12T06:55:44.719Z,77.70
2018-02-12T06:58:12.191Z,77.80
2018-02-12T07:00:39.635Z,78.40
2018-02-12T07:03:07.088Z,78.70
2018-02-12T07:05:34.546Z,77.70
2018-02-12T07:08:01.999Z,76.60
2018-02-12T07:10:29.454Z,77.70
2018-02-12T07:12:56.911Z,78.10
2018-02-12T07:15:24.363Z,76.70
2018-02-12T07:17:51.812Z,77.50
2018-02-12T07:20:19.257Z,78.00
2018-02-12T07:22:46.699Z,78.20
2018-02-12T07:25:14.924Z,78.60
2018-02-12T07:27:42.367Z,78.40
2018-02-12T07:30:09.827Z,78.30
2018-02-12T07:32:38.044Z,78.60
2018-02-12T07:35:05.491Z,78.50
2018-02-12T07:37:32.934Z,78.70
2018-02-12T07:40:00.391Z,78.60
2018-02-12T07:42:27.836Z,79.50
2018-02-12T07:44:55.306Z,78.70
2018-02-12T07:47:22.755Z,78.00
2018-02-12T07:49:50.211Z,77.70
2018-02-12T07:52:17.672Z,76.70
2018-02-12T07:54:45.123Z,77.00
2018-02-12T07:57:12.576Z,76.80
2018-02-12T07:59:40.043Z,76.50
2018-02-12T08:02:07.496Z,76.60
2018-02-12T08:04:34.946Z,76.70
2018-02-12T08:07:02.398Z,76.30
2018-02-12T08:09:29.840Z,76.00
2018-02-12T08:11:58.063Z,76.10
2018-02-12T08:14:25.505Z,76.00
2018-02-12T08:16:52.959Z,75.60
2018-02-12T08:19:20.407Z,76.10
2018-02-12T08:21:47.859Z,75.40
2018-02-12T08:24:15.307Z,76.10
2018-02-12T08:26:42.751Z,76.50
2018-02-12T08:29:10.958Z,77.70
2018-02-12T08:31:38.407Z,77.60
2018-02-12T08:34:05.851Z,77.50
2018-02-12T08:36:33.291Z,77.60
2018-02-12T08:39:00.734Z,78.10
2018-02-12T08:41:28.187Z,78.00
2018-02-12T08:43:55.631Z,78.50
2018-02-12T08:46:23.855Z,77.30
2018-02-12T08:48:51.302Z,77.40
2018-02-12T08:51:18.746Z,77.60
2018-02-12T08:53:46.201Z,76.30
2018-02-12T08:56:13.655Z,76.30
2018-02-12T08:58:41.106Z,76.10
2018-02-12T09:01:08.550Z,76.20
2018-02-12T09:03:35.994Z,74.50
2018-02-12T09:06:03.434Z,72.80
2018-02-12T09:08:30.889Z,71.50
2018-02-12T09:10:58.385Z,66.90
2018-02-12T09:13:25.815Z,65.20
2018-02-12T09:15:54.030Z,65.00
2018-02-12T09:18:21.490Z,64.90
2018-02-12T09:20:48.945Z,66.40
2018-02-12T09:23:16.395Z,67.10
2018-02-12T09:25:43.848Z,67.30
2018-02-12T09:28:11.290Z,67.80
2018-02-12T09:30:38.732Z,67.40
2018-02-12T09:33:06.943Z,65.30
2018-02-12T09:35:34.397Z,65.40
2018-02-12T09:38:01.845Z,66.40
2018-02-12T09:40:29.276Z,64.30
2018-02-12T09:42:57.483Z,63.20
2018-02-12T09:45:24.914Z,63.20
2018-02-12T09:47:52.356Z,62.60
2018-02-12T09:50:20.566Z,60.30
2018-02-12T09:52:48.012Z,60.30
2018-02-12T09:55:15.454Z,60.10
2018-02-12T09:57:43.667Z,58.50
2018-02-12T10:00:11.110Z,58.50
2018-02-12T10:02:38.566Z,59.10
2018-02-12T10:05:06.010Z,61.00
2018-02-12T10:07:33.455Z,61.70
2018-02-12T10:10:00.891Z,61.50
2018-02-12T10:12:28.343Z,59.40
2018-02-12T10:14:55.786Z,58.30
2018-02-12T10:17:23.251Z,59.30
2018-02-12T10:19:50.688Z,59.60
2018-02-12T10:22:18.144Z,59.70
2018-02-12T10:24:45.579Z,59.10
2018-02-12T10:27:13.046Z,56.70
2018-02-12T10:29:40.486Z,57.00
2018-02-12T10:32:07.922Z,57.30
2018-02-12T10:34:35.364Z,57.50
2018-02-12T10:37:03.583Z,58.40
2018-02-12T10:39:31.026Z,58.40
2018-02-12T10:41:58.487Z,57.40
2018-02-12T10:44:25.937Z,57.70
2018-02-12T10:46:53.395Z,57.70
2018-02-12T10:49:20.852Z,57.70
2018-02-12T10:51:48.294Z,58.50
2018-02-12T10:54:15.730Z,59.60
2018-02-12T10:56:43.199Z,61.00
2018-02-12T10:59:10.641Z,59.70
2018-02-12T11:01:38.070Z,59.00
2018-02-12T11:04:05.535Z,58.70
2018-02-12T11:06:32.978Z,58.80
2018-02-12T11:09:00.434Z,59.00
2018-02-12T11:11:27.891Z,59.00
2018-02-12T11:13:55.346Z,60.10
2018-02-12T11:16:22.790Z,62.50
2018-02-12T11:18:50.247Z,61.60
2018-02-12T11:21:17.695Z,62.50
2018-02-12T11:23:45.194Z,64.40
2018-02-12T11:26:12.638Z,65.40
2018-02-12T11:28:40.087Z,64.50
2018-02-12T11:31:07.544Z,64.60
2018-02-12T11:33:34.987Z,65.00
2018-02-12T11:36:02.442Z,61.30
2018-02-12T11:38:29.887Z,59.80
2018-02-12T11:40:57.330Z,60.80
2018-02-12T11:43:24.778Z,59.80
2018-02-12T11:45:52.225Z,62.10
2018-02-12T11:48:19.654Z,62.90
2018-02-12T11:50:47.546Z,66.00
2018-02-12T11:53:14.983Z,67.50
2018-02-12T11:55:43.216Z,67.50
2018-02-12T11:58:10.675Z,67.50
2018-02-12T12:00:38.142Z,65.20
2018-02-12T12:03:05.600Z,66.30
2018-02-12T12:05:33.054Z,66.70
2018-02-12T12:08:00.497Z,65.20
2018-02-12T12:10:27.979Z,65.40
2018-02-12T12:12:55.414Z,65.30
2018-02-12T12:15:22.875Z,65.50
2018-02-12T12:17:50.326Z,66.10
2018-02-12T12:20:17.786Z,66.40
2018-02-12T12:22:45.242Z,64.80
2018-02-12T12:25:12.690Z,64.70
2018-02-12T12:27:40.150Z,63.80
2018-02-12T12:30:07.591Z,63.50
2018-02-12T12:32:35.034Z,63.30
2018-02-12T12:35:02.511Z,60.10
2018-02-12T12:37:29.971Z,56.60
2018-02-12T12:39:57.421Z,54.20
2018-02-12T12:42:24.858Z,55.50
2018-02-12T12:44:52.312Z,55.40
2018-02-12T12:47:22.172Z,57.40
2018-02-12T12:49:47.197Z,56.80
2018-02-12T12:52:15.414Z,66.40
2018-02-12T12:54:42.854Z,66.30
2018-02-12T12:57:10.310Z,68.30
2018-02-12T12:59:37.746Z,70.10
2018-02-12T13:02:05.198Z,71.70
2018-02-12T13:04:32.651Z,75.20
2018-02-12T13:07:00.866Z,79.00
2018-02-12T13:09:28.319Z,79.00
2018-02-12T13:11:55.779Z,80.10
2018-02-12T13:14:23.223Z,78.90
2018-02-12T13:16:50.677Z,78.60
2018-02-12T13:19:18.131Z,78.70
2018-02-12T13:21:45.593Z,77.90
2018-02-12T13:24:13.047Z,78.50
2018-02-12T13:26:40.498Z,77.20
2018-02-12T13:29:07.961Z,77.70
2018-02-12T13:31:36.539Z,76.30
2018-02-12T13:34:04.715Z,78.70
2018-02-12T13:36:32.166Z,78.70
2018-02-12T13:38:59.634Z,77.10
2018-02-12T13:41:27.084Z,75.10
2018-02-12T13:43:54.551Z,74.40
2018-02-12T13:46:22.015Z,74.40
2018-02-12T13:48:49.471Z,74.20
2018-02-12T13:51:16.944Z,75.70
2018-02-12T13:53:44.399Z,76.30
2018-02-12T13:56:11.854Z,77.50
2018-02-12T13:58:39.306Z,78.70
2018-02-12T14:01:06.767Z,78.90
2018-02-12T14:03:34.223Z,78.80
2018-02-12T14:06:01.667Z,78.80
2018-02-12T14:08:29.119Z,78.30
2018-02-12T14:10:56.573Z,76.70
2018-02-12T14:13:24.031Z,76.50
2018-02-12T14:15:51.490Z,74.90
2018-02-12T14:18:18.954Z,76.00
2018-02-12T14:20:46.418Z,77.30
2018-02-12T14:23:13.876Z,80.30
2018-02-12T14:25:41.328Z,82.40
2018-02-12T14:28:08.785Z,83.40
2018-02-12T14:30:36.234Z,83.70
2018-02-12T14:33:03.703Z,84.10
2018-02-12T14:35:31.150Z,84.60
2018-02-12T14:37:58.610Z,83.20
2018-02-12T14:40:26.065Z,81.70
2018-02-12T14:42:53.535Z,82.50
2018-02-12T14:45:20.984Z,82.00
2018-02-12T14:47:48.468Z,83.30
2018-02-12T14:50:16.675Z,85.00
2018-02-12T14:52:44.130Z,85.00
2018-02-12T14:55:11.587Z,85.60
2018-02-12T14:57:39.071Z,86.50
2018-02-12T15:00:06.522Z,87.30
2018-02-12T15:02:33.964Z,88.40
2018-02-12T15:05:01.424Z,89.20
2018-02-12T15:07:28.870Z,90.40
2018-02-12T15:09:56.318Z,91.00
2018-02-12T15:12:23.774Z,90.70
2018-02-12T15:14:51.231Z,90.60
2018-02-12T15:17:18.687Z,90.20
2018-02-12T15:19:46.910Z,89.70
2018-02-12T15:22:14.354Z,89.80
2018-02-12T15:24:41.807Z,90.10
2018-02-12T15:27:09.268Z,89.40
2018-02-12T15:29:36.732Z,88.20
2018-02-12T15:32:04.183Z,87.10
2018-02-12T15:34:31.656Z,87.10
2018-02-12T15:36:59.871Z,86.10
2018-02-12T15:39:27.332Z,86.10
2018-02-12T15:41:54.782Z,84.70
2018-02-12T15:44:22.247Z,83.60
2018-02-12T15:46:49.701Z,83.60
2018-02-12T15:49:17.155Z,83.80
2018-02-12T15:51:44.609Z,83.40
2018-02-12T15:54:12.068Z,83.50
2018-02-12T15:56:39.521Z,83.80
2018-02-12T15:59:06.980Z,83.90
2018-02-12T16:01:34.427Z,83.80
2018-02-12T16:04:01.884Z,83.50
2018-02-12T16:06:29.323Z,84.50
2018-02-12T16:08:56.775Z,83.90
2018-02-12T16:11:25.007Z,83.60
2018-02-12T16:13:52.459Z,83.60
2018-02-12T16:16:19.910Z,82.80
2018-02-12T16:18:47.370Z,82.60
2018-02-12T16:21:14.827Z,83.60
2018-02-12T16:23:42.283Z,84.10
2018-02-12T16:26:09.738Z,84.00
2018-02-12T16:28:37.186Z,84.00
2018-02-12T16:31:04.647Z,84.20
2018-02-12T16:33:32.093Z,84.50
2018-02-12T16:35:59.544Z,85.50
2018-02-12T16:38:27.004Z,86.20
2018-02-12T16:40:54.455Z,86.20
2018-02-12T16:43:21.907Z,86.80
2018-02-12T16:45:49.362Z,86.40
2018-02-12T16:48:16.824Z,86.70
2018-02-12T16:50:44.283Z,87.30
2018-02-12T16:53:11.738Z,87.30
2018-02-12T16:55:39.214Z,87.40
2018-02-12T16:58:06.666Z,87.50
2018-02-12T17:00:34.123Z,87.90
2018-02-12T17:03:01.591Z,88.10
2018-02-12T17:05:29.055Z,89.00
2018-02-12T17:07:56.539Z,89.20
2018-02-12T17:10:23.991Z,90.00
2018-02-12T17:12:52.307Z,89.40
2018-02-12T17:15:19.783Z,89.40
2018-02-12T17:17:47.239Z,88.50
2018-02-12T17:20:14.705Z,87.70
2018-02-12T17:22:42.138Z,87.70
2018-02-12T17:25:09.582Z,88.20
2018-02-12T17:27:37.043Z,87.10
2018-02-12T17:30:04.493Z,87.10
2018-02-12T17:32:31.956Z,87.00
2018-02-12T17:34:59.494Z,86.00
2018-02-12T17:37:26.967Z,85.30
2018-02-12T17:39:54.426Z,84.50
2018-02-12T17:42:21.887Z,84.40
2018-02-12T17:44:49.335Z,84.20
2018-02-12T17:47:16.792Z,84.30
2018-02-12T17:49:44.733Z,84.60
2018-02-12T17:52:12.319Z,84.90
2018-02-12T17:54:39.846Z,85.60
2018-02-12T17:57:08.075Z,87.30
2018-02-12T17:59:35.558Z,87.40
2018-02-12T18:02:03.810Z,87.10
2018-02-12T18:04:31.268Z,87.50
2018-02-12T18:06:58.726Z,87.90
2018-02-12T18:09:26.194Z,88.60
2018-02-12T18:11:53.662Z,88.90
2018-02-12T18:14:21.888Z,89.50
2018-02-12T18:16:49.338Z,89.50
2018-02-12T18:19:16.799Z,89.80
2018-02-12T18:21:44.254Z,89.90
2018-02-12T18:24:11.715Z,90.00
2018-02-12T18:26:39.176Z,90.20
2018-02-12T18:29:06.639Z,90.30
2018-02-12T18:31:34.097Z,90.30
2018-02-12T18:34:02.472Z,90.20
2018-02-12T18:36:29.928Z,90.20
2018-02-12T18:38:57.383Z,90.20
2018-02-12T18:41:24.842Z,90.20
2018-02-12T18:43:52.323Z,90.20
2018-02-12T18:46:19.780Z,90.30
2018-02-12T18:48:47.242Z,90.50
2018-02-12T18:51:15.511Z,90.30
2018-02-12T18:53:42.966Z,90.30
2018-02-12T18:56:10.430Z,90.60
2018-02-12T18:58:38.671Z,90.60
2018-02-12T19:01:06.131Z,90.80
2018-02-12T19:03:33.603Z,90.80
2018-02-12T19:06:01.061Z,90.90
2018-02-12T19:08:28.522Z,91.10
2018-02-12T19:10:55.975Z,91.10
2018-02-12T19:13:23.431Z,91.50
2018-02-12T19:15:50.884Z,91.70
2018-02-12T19:18:18.357Z,91.60
2018-02-12T19:20:45.811Z,91.80
2018-02-12T19:23:14.060Z,91.90
2018-02-12T19:25:41.524Z,91.90
2018-02-12T19:28:08.984Z,91.90
2018-02-12T19:30:36.440Z,91.90
2018-02-12T19:33:03.915Z,91.90
2018-02-12T19:35:32.135Z,91.90
2018-02-12T19:37:59.595Z,91.90
2018-02-12T19:40:27.109Z,92.00
2018-02-12T19:42:54.514Z,91.90
2018-02-12T19:45:21.984Z,91.80
2018-02-12T19:47:49.450Z,92.00
2018-02-12T19:50:16.912Z,91.90
2018-02-12T19:52:44.363Z,91.80
2018-02-12T19:55:11.831Z,92.00
2018-02-12T19:57:39.298Z,91.70
2018-02-12T20:00:07.749Z,91.40
2018-02-12T20:02:35.229Z,91.40
2018-02-12T20:05:02.693Z,91.30
2018-02-12T20:07:31.351Z,91.30
2018-02-12T20:09:58.819Z,91.20
2018-02-12T20:12:26.274Z,91.20
2018-02-12T20:14:53.740Z,91.10
2018-02-12T20:17:21.958Z,90.90
2018-02-12T20:19:50.187Z,90.80
2018-02-12T20:22:18.411Z,91.10
2018-02-12T20:24:45.917Z,91.20
2018-02-12T20:27:13.318Z,91.20
2018-02-12T20:29:40.845Z,91.10
2018-02-12T20:32:08.374Z,91.10
2018-02-12T20:34:35.862Z,91.10
2018-02-12T20:37:04.157Z,91.30
2018-02-12T20:39:31.648Z,91.40
2018-02-12T20:41:59.104Z,91.50
2018-02-12T20:44:26.608Z,91.90
2018-02-12T20:46:54.850Z,91.90
2018-02-12T20:49:22.314Z,92.00
2018-02-12T20:51:49.779Z,91.80
2018-02-12T20:54:18.056Z,91.80
2018-02-12T20:56:46.612Z,91.80
2018-02-12T20:59:14.139Z,91.90
2018-02-12T21:01:41.635Z,91.80
2018-02-12T21:04:09.974Z,91.50
2018-02-12T21:06:37.487Z,91.40
2018-02-12T21:09:05.727Z,91.60
2018-02-12T21:11:34.039Z,91.50
2018-02-12T21:14:02.288Z,91.50
2018-02-12T21:16:29.776Z,91.50
2018-02-12T21:18:58.011Z,91.60
2018-02-12T21:21:25.492Z,91.60
2018-02-12T21:23:52.996Z,91.70
2018-02-12T21:26:20.468Z,91.90
2018-02-12T21:28:48.939Z,91.90
2018-02-12T21:31:16.415Z,92.00
2018-02-12T21:33:43.876Z,91.90
2018-02-12T21:36:11.364Z,92.00
2018-02-12T21:38:39.615Z,92.00
2018-02-12T21:41:07.238Z,92.00
2018-02-12T21:43:34.702Z,92.10
2018-02-12T21:46:02.211Z,92.00
2018-02-12T21:48:29.681Z,91.60
2018-02-12T21:50:57.145Z,91.80
2018-02-12T21:53:24.598Z,91.70
2018-02-12T21:55:52.082Z,91.60
2018-02-12T21:58:19.558Z,91.60
2018-02-12T22:00:58.954Z,91.70
2018-02-12T22:03:26.446Z,91.50
2018-02-12T22:05:53.918Z,91.40
2018-02-12T22:08:21.445Z,91.60
2018-02-12T22:10:48.903Z,91.30
2018-02-12T22:13:16.361Z,91.00
2018-02-12T22:15:43.815Z,90.80
2018-02-12T22:18:11.283Z,90.80
2018-02-12T22:20:38.761Z,90.70
2018-02-12T22:23:07.015Z,90.60
2018-02-12T22:25:34.479Z,90.60
2018-02-12T22:28:01.979Z,90.80
2018-02-12T22:30:30.206Z,90.90
2018-02-12T22:32:57.671Z,90.90
2018-02-12T22:35:25.141Z,90.70
2018-02-12T22:37:52.621Z,90.70
2018-02-12T22:40:20.052Z,90.80
2018-02-12T22:42:47.519Z,90.40
2018-02-12T22:45:18.023Z,90.70
2018-02-12T22:47:45.491Z,90.80
2018-02-12T22:50:12.946Z,91.00
2018-02-12T22:52:40.416Z,91.40
2018-02-12T22:55:07.871Z,91.40
2018-02-12T22:57:36.535Z,91.50
2018-02-12T23:00:03.983Z,91.60
2018-02-12T23:02:31.460Z,91.70
2018-02-12T23:04:59.125Z,91.70
2018-02-12T23:07:26.670Z,91.80
2018-02-12T23:09:54.144Z,91.80
2018-02-12T23:12:21.767Z,91.90
2018-02-12T23:14:49.242Z,91.70
2018-02-12T23:17:16.715Z,91.50
2018-02-12T23:19:44.173Z,91.60
2018-02-12T23:22:11.627Z,91.50
2018-02-12T23:24:39.096Z,91.20
2018-02-12T23:27:06.579Z,91.10
2018-02-12T23:29:34.023Z,91.00
2018-02-12T23:32:01.699Z,91.10
2018-02-12T23:34:29.169Z,91.40
2018-02-12T23:36:56.643Z,91.40
2018-02-12T23:39:24.103Z,91.50
2018-02-12T23:41:51.563Z,91.40
2018-02-12T23:44:19.014Z,91.40
2018-02-12T23:46:46.475Z,91.40
2018-02-12T23:49:13.940Z,91.40
2018-02-12T23:51:41.390Z,91.30
2018-02-12T23:54:08.850Z,91.30
2018-02-12T23:56:36.302Z,91.20
2018-02-12T23:59:03.772Z,91.20
